createdAt,value
2022-12-14T00:04:24.646Z,-4.80
2022-12-14T00:10:28.004Z,-4.80
2022-12-14T00:16:37.176Z,-4.80
2022-12-14T00:22:44.376Z,-4.70
2022-12-14T00:35:32.915Z,-4.70
2022-12-14T00:41:35.259Z,-4.70
2022-12-14T00:47:40.691Z,-4.70
2022-12-14T00:53:44.740Z,-4.60
2022-12-14T00:59:46.562Z,-4.50
2022-12-14T01:05:49.108Z,-4.50
2022-12-14T01:11:51.946Z,-4.50
2022-12-14T01:17:53.847Z,-4.50
2022-12-14T01:24:02.085Z,-4.50
2022-12-14T01:30:04.831Z,-4.50
2022-12-14T01:36:12.398Z,-4.50
2022-12-14T01:42:15.910Z,-4.50
2022-12-14T01:48:18.203Z,-4.50
2022-12-14T01:54:20.822Z,-4.60
2022-12-14T02:00:23.290Z,-4.50
2022-12-14T02:06:29.887Z,-4.50
2022-12-14T02:12:47.975Z,-4.50
2022-12-14T02:18:49.784Z,-4.50
2022-12-14T02:25:00.877Z,-4.50
2022-12-14T02:31:27.997Z,-4.40
2022-12-14T02:38:01.964Z,-4.50
2022-12-14T02:44:18.812Z,-4.70
2022-12-14T02:50:23.887Z,-4.60
2022-12-14T02:56:36.676Z,-4.60
2022-12-14T03:02:42.210Z,-4.70
2022-12-14T03:08:47.096Z,-4.70
2022-12-14T03:14:52.382Z,-4.90
2022-12-14T03:20:56.362Z,-5.00
2022-12-14T03:27:25.520Z,-5.00
2022-12-14T03:33:29.995Z,-5.00
2022-12-14T03:39:35.044Z,-5.10
2022-12-14T03:46:07.880Z,-5.10
2022-12-14T03:52:36.493Z,-5.10
2022-12-14T03:59:00.321Z,-5.30
2022-12-14T04:05:30.954Z,-5.20
2022-12-14T04:11:57.881Z,-5.40
2022-12-14T04:18:24.518Z,-5.50
2022-12-14T04:25:12.973Z,-5.50
2022-12-14T04:31:19.263Z,-5.40
2022-12-14T04:37:24.714Z,-5.50
2022-12-14T04:43:34.249Z,-5.50
2022-12-14T04:49:50.275Z,-5.50
2022-12-14T04:56:26.845Z,-5.50
2022-12-14T05:03:04.012Z,-5.50
2022-12-14T05:09:11.608Z,-5.30
2022-12-14T05:15:23.322Z,-5.20
2022-12-14T05:21:43.689Z,-5.40
2022-12-14T05:27:46.192Z,-5.70
2022-12-14T05:33:47.973Z,-5.90
2022-12-14T05:39:49.886Z,-6.10
2022-12-14T05:45:58.879Z,-6.30
2022-12-14T05:52:00.888Z,-6.50
2022-12-14T05:58:02.671Z,-6.70
2022-12-14T06:04:04.746Z,-6.60
2022-12-14T06:10:06.924Z,-6.70
2022-12-14T06:16:21.169Z,-6.80
2022-12-14T06:22:23.101Z,-6.70
2022-12-14T06:28:24.954Z,-6.60
2022-12-14T06:34:28.799Z,-6.60
2022-12-14T06:40:30.681Z,-6.60
2022-12-14T06:46:33.262Z,-6.60
2022-12-14T06:52:35.094Z,-6.40
2022-12-14T06:58:37.390Z,-6.30
2022-12-14T07:04:41.355Z,-6.20
2022-12-14T07:10:43.148Z,-6.10
2022-12-14T07:16:48.353Z,-6.20
2022-12-14T07:22:50.779Z,-6.20
2022-12-14T07:28:53.137Z,-6.00
2022-12-14T07:34:54.957Z,-6.00
2022-12-14T07:41:05.688Z,-5.80
2022-12-14T07:47:07.612Z,-5.80
2022-12-14T07:53:09.418Z,-5.70
2022-12-14T07:59:15.308Z,-5.70
2022-12-14T08:05:17.259Z,-5.60
2022-12-14T08:11:22.164Z,-5.50
2022-12-14T08:17:23.978Z,-5.30
2022-12-14T08:23:25.826Z,-5.30
2022-12-14T08:29:27.611Z,-5.10
2022-12-14T08:35:29.433Z,-5.00
2022-12-14T08:41:31.588Z,-4.80
2022-12-14T08:47:33.379Z,-4.70
2022-12-14T08:53:36.602Z,-4.40
2022-12-14T09:00:00.872Z,-4.20
2022-12-14T09:06:06.496Z,-4.00
2022-12-14T09:12:08.340Z,-3.80
2022-12-14T09:18:10.361Z,-3.70
2022-12-14T09:24:12.161Z,-3.60
2022-12-14T09:30:14.030Z,-3.40
2022-12-14T09:36:27.813Z,-3.20
2022-12-14T09:42:43.312Z,-3.00
2022-12-14T09:48:53.569Z,-2.60
2022-12-14T09:54:57.035Z,-2.50
2022-12-14T10:01:22.057Z,-2.50
2022-12-14T10:07:38.845Z,-2.40
2022-12-14T10:13:59.623Z,-2.30
2022-12-14T10:20:14.736Z,-2.30
2022-12-14T10:26:19.881Z,-2.30
2022-12-14T10:32:30.201Z,-2.20
2022-12-14T10:38:36.830Z,-2.10
2022-12-14T10:45:39.583Z,-2.10
2022-12-14T10:51:39.713Z,-1.90
2022-12-14T10:57:41.626Z,-1.70
2022-12-14T11:03:53.675Z,-1.60
2022-12-14T11:10:20.365Z,-1.40
2022-12-14T11:16:37.667Z,-1.40
2022-12-14T11:22:47.956Z,-1.40
2022-12-14T11:28:58.563Z,-1.40
2022-12-14T11:35:00.487Z,-1.50
2022-12-14T11:41:10.762Z,-1.50
2022-12-14T11:47:15.595Z,-1.50
2022-12-14T11:53:19.801Z,-1.30
2022-12-14T11:59:22.733Z,-1.20
2022-12-14T12:05:24.757Z,-1.00
2022-12-14T12:11:34.710Z,-1.00
2022-12-14T12:17:43.247Z,-0.80
2022-12-14T12:23:54.976Z,-0.60
2022-12-14T12:30:07.108Z,-0.60
2022-12-14T12:36:09.861Z,-0.60
2022-12-14T12:42:32.998Z,-0.60
2022-12-14T12:48:54.302Z,-0.60
2022-12-14T12:55:01.566Z,-0.70
2022-12-14T13:01:24.291Z,-0.70
2022-12-14T13:07:42.085Z,-0.70
2022-12-14T13:13:49.409Z,-0.90
2022-12-14T13:19:54.953Z,-0.90
2022-12-14T13:26:56.650Z,-1.00
2022-12-14T13:33:08.900Z,-1.10
2022-12-14T13:39:10.674Z,-1.20
2022-12-14T13:45:43.556Z,-1.20
2022-12-14T13:51:50.460Z,-1.20
2022-12-14T13:57:53.350Z,-1.30
2022-12-14T14:04:14.154Z,-1.40
2022-12-14T14:10:36.231Z,-1.50
2022-12-14T14:16:44.185Z,-1.60
2022-12-14T14:23:15.934Z,-1.80
2022-12-14T14:29:24.776Z,-1.90
2022-12-14T14:35:37.814Z,-2.00
2022-12-14T14:41:43.490Z,-2.20
2022-12-14T14:47:56.508Z,-2.80
2022-12-14T15:01:16.286Z,-3.60
2022-12-14T15:07:42.267Z,-4.00
2022-12-14T15:14:06.707Z,-4.40
2022-12-14T15:20:24.558Z,-4.80
2022-12-14T15:26:33.850Z,-5.00
2022-12-14T15:32:35.754Z,-5.30
2022-12-14T15:38:37.932Z,-5.50
2022-12-14T15:44:48.167Z,-5.70
2022-12-14T15:50:55.119Z,-5.70
2022-12-14T15:56:58.762Z,-6.00
2022-12-14T16:03:08.982Z,-6.20
2022-12-14T16:09:32.305Z,-6.30
2022-12-14T16:15:34.525Z,-6.40
2022-12-14T16:21:36.591Z,-6.60
2022-12-14T16:27:42.372Z,-6.60
2022-12-14T16:33:44.651Z,-6.80
2022-12-14T16:39:49.591Z,-6.90
2022-12-14T16:46:03.352Z,-6.90
2022-12-14T16:52:21.248Z,-7.00
2022-12-14T16:58:23.239Z,-7.10
2022-12-14T17:04:33.657Z,-7.20
2022-12-14T17:10:35.553Z,-7.20
2022-12-14T17:16:38.714Z,-7.20
2022-12-14T17:22:41.310Z,-7.20
2022-12-14T17:28:43.097Z,-7.20
2022-12-14T17:34:48.272Z,-7.20
2022-12-14T17:40:51.225Z,-7.30
2022-12-14T17:46:53.335Z,-7.40
2022-12-14T17:52:55.328Z,-7.40
2022-12-14T17:58:57.142Z,-7.50
2022-12-14T18:04:59.559Z,-7.70
2022-12-14T18:11:07.625Z,-7.70
2022-12-14T18:17:14.327Z,-7.80
2022-12-14T18:23:17.209Z,-7.80
2022-12-14T18:29:19.010Z,-7.90
2022-12-14T18:35:24.290Z,-7.90
2022-12-14T18:41:27.457Z,-7.90
2022-12-14T18:47:43.238Z,-8.00
2022-12-14T18:53:45.121Z,-8.00
2022-12-14T18:59:46.900Z,-8.10
2022-12-14T19:05:48.877Z,-8.20
2022-12-14T19:11:50.635Z,-8.20
2022-12-14T19:17:53.013Z,-8.30
2022-12-14T19:23:55.762Z,-8.30
2022-12-14T19:29:57.597Z,-8.40
2022-12-14T19:36:00.223Z,-8.40
2022-12-14T19:42:02.081Z,-8.50
2022-12-14T19:48:06.760Z,-8.50
2022-12-14T19:54:12.039Z,-8.50
2022-12-14T20:00:14.450Z,-8.60
2022-12-14T20:06:16.412Z,-8.60
2022-12-14T20:12:18.287Z,-8.60
2022-12-14T20:18:21.570Z,-8.60
2022-12-14T20:24:23.376Z,-8.70
2022-12-14T20:30:25.405Z,-8.70
2022-12-14T20:36:28.763Z,-8.70
2022-12-14T20:42:30.780Z,-8.80
2022-12-14T20:48:33.084Z,-8.80
2022-12-14T20:54:34.950Z,-8.80
2022-12-14T21:00:37.385Z,-8.90
2022-12-14T21:06:41.929Z,-8.80
2022-12-14T21:12:44.532Z,-8.80
2022-12-14T21:18:46.422Z,-8.80
2022-12-14T21:25:06.668Z,-8.90
2022-12-14T21:31:15.595Z,-8.90
2022-12-14T21:37:18.210Z,-8.90
2022-12-14T21:43:20.066Z,-8.90
2022-12-14T21:49:22.350Z,-8.90
2022-12-14T21:55:24.175Z,-8.90
2022-12-14T22:01:26.022Z,-9.00
2022-12-14T22:07:33.192Z,-9.00
2022-12-14T22:13:35.027Z,-9.00
2022-12-14T22:19:36.907Z,-9.10
2022-12-14T22:25:38.770Z,-9.10
2022-12-14T22:31:41.115Z,-9.10
2022-12-14T22:37:42.941Z,-9.10
2022-12-14T22:43:45.052Z,-9.20
2022-12-14T22:49:47.189Z,-9.30
2022-12-14T22:55:49.942Z,-9.30
2022-12-14T23:01:52.815Z,-9.40
2022-12-14T23:07:55.763Z,-9.40
2022-12-14T23:14:16.135Z,-9.40
2022-12-14T23:20:36.647Z,-9.40
2022-12-14T23:26:57.210Z,-9.40
2022-12-14T23:33:17.429Z,-9.50
2022-12-14T23:39:38.223Z,-9.50
2022-12-14T23:45:59.010Z,-9.50
2022-12-14T23:52:19.281Z,-9.60
2022-12-14T23:58:39.868Z,-9.70
